Flight Track Log - Related Links

Times and Time Zones

All times are in EDT time to prevent confusion due to time zone crossing. See the ASA128 flight status page for this flight to view local times or setup timezone preferences in your user account.

Time Position Orientation Groundspeed Altitude Reporting Facility
EDT Latitude Longitude Course Direction KTS MPH feet Rate Location/Type
Fri 05:52:10 AM 64.7333 -147.8000 124° Southeast 220 253 3,900  Level Anchorage Center
Fri 05:53:10 AM 64.7000 -147.6500 117° Southeast 260 299 6,000 2,132 Climbing Anchorage Center
Fri 05:54:11 AM 64.6667 -147.5000 117° Southeast 280 322 8,200 2,182 Climbing Anchorage Center
Fri 05:55:11 AM 64.6167 -147.3333 125° Southeast 290 334 10,400 1,950 Climbing Anchorage Center
Fri 05:56:11 AM 64.5667 -147.1500 122° Southeast 330 380 12,100 2,000 Climbing Anchorage Center
Fri 05:57:00 AM 64.2701 -146.3444 124° Southeast  Level Estimated
Fri 05:57:11 AM 64.5167 -146.9667 122° Southeast 340 391 14,400  Level Anchorage Center
Fri 05:58:12 AM 64.4500 -146.7667 128° Southeast 360 414 16,900 2,380 Climbing Anchorage Center
Fri 05:59:12 AM 64.4000 -146.5833 122° Southeast 360 414 19,200 1,900 Climbing Anchorage Center
Fri 06:00:12 AM 64.3333 -146.3500 123° Southeast 400 460 20,700 1,537 Climbing Anchorage Center
Fri 06:01:13 AM 64.2833 -146.1500 120° Southeast 410 472 22,300 1,785 Climbing Anchorage Center
Fri 06:02:13 AM 64.2167 -145.9333 125° Southeast 420 483 24,300 1,800 Climbing Anchorage Center
Fri 06:03:13 AM 64.1500 -145.6833 121° Southeast 420 483 25,900 1,438 Climbing Anchorage Center
Fri 06:04:14 AM 64.0833 -145.4667 125° Southeast 430 495 27,200 1,339 Climbing Anchorage Center
Fri 06:05:14 AM 64.0167 -145.2167 121° Southeast 440 506 28,600 1,650 Climbing Anchorage Center
Fri 06:06:14 AM 63.9500 -145.0000 125° Southeast 440 506 30,500 1,488 Climbing Anchorage Center
Fri 06:07:15 AM 63.8667 -144.7667 129° Southeast 430 495 31,600 992 Climbing Anchorage Center
Fri 06:08:15 AM 63.8000 -144.5667 127° Southeast 450 518 32,500 1,050 Climbing Anchorage Center
Fri 06:09:15 AM 63.7333 -144.3333 123° Southeast 430 495 33,700 992 Climbing Anchorage Center
Fri 06:10:16 AM 63.6667 -144.1167 125° Southeast 440 506 34,500 645 Climbing Anchorage Center
Fri 06:11:16 AM 63.6000 -143.8833 123° Southeast 440 506 35,000 250 Climbing Anchorage Center
Fri 06:12:16 AM 63.5167 -143.6667 131° Southeast 450 518 35,000  Level Anchorage Center
Fri 06:13:17 AM 63.4500 -143.4333 123° Southeast 450 518 35,000  Level Anchorage Center
Fri 06:14:17 AM 63.3667 -143.2000 128° Southeast 460 529 35,000  Level Anchorage Center
Fri 06:15:18 AM 63.3000 -142.9667 122° Southeast 460 529 35,000  Level Anchorage Center
Fri 06:16:18 AM 63.2167 -142.7333 128° Southeast 460 529 35,000  Level Anchorage Center
Fri 06:17:18 AM 63.1500 -142.5167 124° Southeast 460 529 35,000  Level Anchorage Center
Fri 06:18:19 AM 63.0667 -142.2833 128° Southeast 460 529 35,000  Level Anchorage Center
Fri 06:19:19 AM 63.0000 -142.0667 124° Southeast 450 518 35,000  Level Anchorage Center
Fri 06:20:19 AM 62.9167 -141.8667 132° Southeast 450 518 35,000  Level Anchorage Center
Fri 06:21:20 AM 62.8167 -141.6833 140° Southeast 430 495 35,000  Level Anchorage Center
Fri 06:22:20 AM 62.7167 -141.5167 143° Southeast 440 506 35,000  Level Anchorage Center
Fri 06:23:20 AM 62.6333 -141.3333 135° Southeast 450 518 35,000  Level Anchorage Center
Fri 06:24:21 AM 62.5500 -141.1500 135° Southeast 420 483 35,000  Level Anchorage Center
Fri 06:25:21 AM 62.4500 -140.9667 140° Southeast 410 472 35,000  Level Anchorage Center
Fri 06:27:00 AM 62.2992 -140.6848 139° Southeast  Level FlightAware Approximate
Fri 06:34:00 AM 61.6533 -139.5197 139° Southeast  Level FlightAware Approximate
Fri 06:35:00 AM 61.5602 -139.3572 140° Southeast  Level FlightAware Approximate
Fri 06:35:14 AM 61.5167 -139.3167 148° Southeast 450 518 35,000  Level Anchorage Center
Fri 06:36:00 AM 61.4669 -139.1957 140° Southeast  Level FlightAware Approximate
Fri 06:36:15 AM 61.4333 -139.1333 134° Southeast 450 518 35,000  Level Anchorage Center
Fri 06:37:00 AM 61.3735 -139.0352 141° Southeast  Level FlightAware Approximate
Fri 06:37:15 AM 61.3333 -138.9667 141° Southeast 450 518 35,000  Level Anchorage Center
Fri 06:38:00 AM 61.2748 -138.8901 148° Southeast  Level FlightAware Approximate
Fri 06:38:16 AM 61.2333 -138.8333 147° Southeast 450 518 35,000  Level Anchorage Center
Fri 06:39:00 AM 61.1723 -138.7568 148° Southeast  Level FlightAware Approximate
Fri 06:39:16 AM 61.1167 -138.7000 151° Southeast 430 495 35,000  Level Anchorage Center
Fri 06:40:00 AM 61.0696 -138.6244 148° Southeast  Level FlightAware Approximate
Fri 06:40:16 AM 61.0167 -138.5667 147° Southeast 440 506 35,000  Level Anchorage Center
Fri 06:41:17 AM 60.9167 -138.4333 147° Southeast 450 518 35,000  Level Anchorage Center
Fri 06:42:17 AM 60.8000 -138.3000 151° Southeast 450 518 35,000  Level Anchorage Center
Fri 06:43:17 AM 60.7000 -138.1667 147° Southeast 440 506 35,000  Level Anchorage Center
Fri 06:44:18 AM 60.6000 -138.0333 147° Southeast 440 506 35,000  Level Anchorage Center
Fri 06:45:18 AM 60.5000 -137.9167 150° Southeast 440 506 35,000  Level Anchorage Center
Fri 06:46:18 AM 60.3833 -137.7833 151° Southeast 450 518 35,000  Level Anchorage Center
Fri 06:47:19 AM 60.2833 -137.6500 147° Southeast 440 506 35,000  Level Anchorage Center
Fri 06:48:19 AM 60.1833 -137.5167 146° Southeast 440 506 35,000  Level Anchorage Center
Fri 06:49:19 AM 60.0667 -137.4000 153° Southeast 440 506 35,000  Level Anchorage Center
Fri 06:50:20 AM 59.9667 -137.2667 146° Southeast 440 506 35,000  Level Anchorage Center
Fri 06:51:20 AM 59.8500 -137.1333 150° Southeast 450 518 35,000  Level Anchorage Center
Fri 06:52:21 AM 59.7500 -137.0000 146° Southeast 460 529 35,000  Level Anchorage Center
Fri 06:53:21 AM 59.6333 -136.8833 153° Southeast 450 518 35,000  Level Anchorage Center
Fri 06:54:21 AM 59.5333 -136.7500 146° Southeast 450 518 35,000  Level Anchorage Center
Fri 06:55:22 AM 59.4167 -136.6333 153° Southeast 450 518 35,000  Level Anchorage Center
Fri 06:56:22 AM 59.3167 -136.5000 146° Southeast 460 529 35,000  Level Anchorage Center
Fri 06:57:22 AM 59.2000 -136.3833 153° Southeast 450 518 35,000  Level Anchorage Center
Fri 06:58:23 AM 59.1000 -136.2500 146° Southeast 450 518 35,000  Level Anchorage Center
Fri 06:59:23 AM 58.9833 -136.1333 153° Southeast 450 518 35,000  Level Anchorage Center
Fri 07:00:23 AM 58.8833 -135.9833 142° Southeast 460 529 35,000  Level Anchorage Center
Fri 07:01:24 AM 58.7833 -135.8000 136° Southeast 470 541 35,000  Level Anchorage Center
Fri 07:02:24 AM 58.6833 -135.6333 139° Southeast 470 541 35,000  Level Anchorage Center
Fri 07:03:25 AM 58.5833 -135.4667 139° Southeast 470 541 35,000  Level Anchorage Center
Fri 07:04:25 AM 58.4833 -135.3167 142° Southeast 460 529 35,000  Level Anchorage Center
Fri 07:05:25 AM 58.3833 -135.1500 139° Southeast 460 529 35,000  Level Anchorage Center
Fri 07:06:26 AM 58.3000 -135.0000 137° Southeast 460 529 35,000  Level Anchorage Center
Fri 07:07:26 AM 58.2000 -134.8333 139° Southeast 470 541 35,000  Level Anchorage Center
Fri 07:08:26 AM 58.1000 -134.6833 142° Southeast 460 529 35,000  Level Anchorage Center
Fri 07:09:27 AM 58.0000 -134.5167 139° Southeast 460 529 35,000  Level Anchorage Center
Fri 07:10:27 AM 57.9000 -134.3667 141° Southeast 460 529 35,000  Level Anchorage Center
Fri 07:11:27 AM 57.8000 -134.2167 141° Southeast 460 529 35,000  Level Anchorage Center
Fri 07:12:28 AM 57.7000 -134.0667 141° Southeast 460 529 35,000  Level Anchorage Center
Fri 07:13:28 AM 57.6000 -133.9167 141° Southeast 460 529 35,000  Level Anchorage Center
Fri 07:14:28 AM 57.5000 -133.7667 141° Southeast 450 518 35,000  Level Anchorage Center
Fri 07:15:29 AM 57.4167 -133.6167 136° Southeast 450 518 35,000  Level Anchorage Center
Fri 07:16:29 AM 57.3167 -133.4667 141° Southeast 450 518 35,000  Level Anchorage Center
Fri 07:17:29 AM 57.2167 -133.3167 141° Southeast 450 518 35,000  Level Anchorage Center
Fri 07:18:29 AM 57.1167 -133.1667 141° Southeast 460 529 35,000  Level Anchorage Center
Fri 07:19:30 AM 57.0167 -133.0333 144° Southeast 460 529 35,000  Level Anchorage Center
Fri 07:20:30 AM 56.9167 -132.8833 141° Southeast 470 541 35,000  Level Anchorage Center
Fri 07:21:30 AM 56.8167 -132.7333 141° Southeast 460 529 35,000  Level Anchorage Center
Fri 07:22:31 AM 56.7167 -132.5833 141° Southeast 460 529 35,000  Level Anchorage Center
Fri 07:23:31 AM 56.6167 -132.4500 144° Southeast 460 529 35,000  Level Anchorage Center
Fri 07:24:31 AM 56.5167 -132.3000 140° Southeast 460 529 35,000  Level Anchorage Center
Fri 07:25:32 AM 56.4167 -132.1500 140° Southeast 460 529 35,000  Level Anchorage Center
Fri 07:26:32 AM 56.3000 -132.0167 148° Southeast 470 541 35,000  Level Anchorage Center
Fri 07:27:32 AM 56.2167 -131.8667 135° Southeast 460 529 35,000  Level Anchorage Center
Fri 07:28:33 AM 56.1000 -131.7333 147° Southeast 480 552 35,000  Level Anchorage Center
Fri 07:29:33 AM 56.0000 -131.5833 140° Southeast 460 529 35,000  Level Anchorage Center
Fri 07:30:33 AM 55.9000 -131.4500 143° Southeast 470 541 35,000  Level Anchorage Center
Fri 07:31:34 AM 55.8000 -131.3167 143° Southeast 460 529 35,000  Level Anchorage Center
Fri 07:32:34 AM 55.6833 -131.1667 144° Southeast 470 541 35,000  Level Anchorage Center
Fri 07:33:35 AM 55.5833 -131.0333 143° Southeast 470 541 35,000  Level Anchorage Center
Fri 07:34:35 AM 55.4833 -130.8833 140° Southeast 470 541 35,000  Level Anchorage Center
Fri 07:35:35 AM 55.3833 -130.7500 143° Southeast 470 541 35,000  Level Anchorage Center
Fri 07:36:36 AM 55.2667 -130.6167 147° Southeast 470 541 35,000  Level Anchorage Center
Fri 07:37:36 AM 55.1667 -130.4833 143° Southeast 470 541 35,000  Level Anchorage Center
Fri 07:38:36 AM 55.0667 -130.3333 139° Southeast 480 552 35,000  Level Anchorage Center
Fri 07:39:37 AM 54.9667 -130.2167 146° Southeast 470 541 35,000  Level Anchorage Center
Fri 07:40:48 AM 54.8333 -130.0833 150° Southeast 470 541 35,000  Level Vancouver Center
Fri 07:41:48 AM 54.7333 -129.9500 142° Southeast 470 541 35,000  Level Vancouver Center
Fri 07:42:48 AM 54.6333 -129.8167 142° Southeast 470 541 35,000  Level Vancouver Center
Fri 07:43:48 AM 54.5167 -129.7000 150° Southeast 470 541 35,000  Level Vancouver Center
Fri 07:44:48 AM 54.4167 -129.5667 142° Southeast 470 541 35,000  Level Vancouver Center
Fri 07:45:48 AM 54.3167 -129.4333 142° Southeast 470 541 35,000  Level Vancouver Center
Fri 07:46:48 AM 54.2167 -129.2833 139° Southeast 470 541 35,000  Level Vancouver Center
Fri 07:47:48 AM 54.1000 -129.1833 153° Southeast 470 541 35,000  Level Vancouver Center
Fri 07:48:48 AM 53.9833 -129.0167 140° Southeast 470 541 35,000  Level Vancouver Center
Fri 07:49:48 AM 53.8833 -128.9000 145° Southeast 470 541 35,000  Level Vancouver Center
Fri 07:50:48 AM 53.7833 -128.7667 142° Southeast 470 541 35,000  Level Vancouver Center
Fri 07:51:48 AM 53.6667 -128.6500 149° Southeast 470 541 35,000  Level Vancouver Center
Fri 07:52:48 AM 53.5500 -128.5167 146° Southeast 470 541 35,000  Level Vancouver Center
Fri 07:53:48 AM 53.4667 -128.4000 140° Southeast 470 541 35,000  Level Vancouver Center
Fri 07:54:48 AM 53.3500 -128.2667 146° Southeast 470 541 35,000  Level Vancouver Center
Fri 07:55:48 AM 53.2333 -128.1500 149° Southeast 480 552 35,000  Level Vancouver Center
Fri 07:56:48 AM 53.1333 -128.0000 138° Southeast 480 552 35,000  Level Vancouver Center
Fri 07:57:48 AM 53.0167 -127.8833 149° Southeast 480 552 35,000  Level Vancouver Center
Fri 07:58:48 AM 52.9167 -127.7500 141° Southeast 480 552 35,000  Level Vancouver Center
Fri 07:59:48 AM 52.8000 -127.6333 149° Southeast 470 541 35,000  Level Vancouver Center
Fri 08:00:48 AM 52.6833 -127.5167 149° Southeast 480 552 35,000  Level Vancouver Center
Fri 08:01:48 AM 52.5833 -127.4000 145° Southeast 480 552 35,000  Level Vancouver Center
Fri 08:02:48 AM 52.4833 -127.2833 145° Southeast 480 552 35,000  Level Vancouver Center
Fri 08:03:48 AM 52.3667 -127.1667 149° Southeast 480 552 35,000  Level Vancouver Center
Fri 08:04:48 AM 52.2500 -127.0167 142° Southeast 480 552 35,000  Level Vancouver Center
Fri 08:05:48 AM 52.1333 -126.9000 148° Southeast 480 552 35,000  Level Vancouver Center
Fri 08:06:48 AM 52.0167 -126.7833 148° Southeast 480 552 35,000  Level Vancouver Center
Fri 08:07:48 AM 51.9333 -126.6667 139° Southeast 480 552 35,000  Level Vancouver Center
Fri 08:08:48 AM 51.8167 -126.5500 148° Southeast 480 552 35,000  Level Vancouver Center
Fri 08:09:48 AM 51.7000 -126.4333 148° Southeast 480 552 35,000  Level Vancouver Center
Fri 08:10:48 AM 51.5833 -126.3167 148° Southeast 480 552 35,000  Level Vancouver Center
Fri 08:11:48 AM 51.4667 -126.1833 145° Southeast 480 552 35,000  Level Vancouver Center
Fri 08:12:48 AM 51.3667 -126.0667 144° Southeast 480 552 35,000  Level Vancouver Center
Fri 08:13:48 AM 51.2500 -125.9667 152° Southeast 480 552 35,000  Level Vancouver Center
Fri 08:14:48 AM 51.1333 -125.8500 148° Southeast 480 552 35,000  Level Vancouver Center
Fri 08:15:48 AM 51.0333 -125.7333 144° Southeast 470 541 35,000  Level Vancouver Center
Fri 08:16:48 AM 50.9333 -125.6333 148° Southeast 480 552 35,000  Level Vancouver Center
Fri 08:17:48 AM 50.8167 -125.5167 148° Southeast 480 552 35,000  Level Vancouver Center
Fri 08:18:48 AM 50.7000 -125.3833 144° Southeast 480 552 35,000  Level Vancouver Center
Fri 08:19:48 AM 50.5833 -125.2667 148° Southeast 470 541 35,000  Level Vancouver Center
Fri 08:20:48 AM 50.4667 -125.1667 151° Southeast 470 541 35,000  Level Vancouver Center
Fri 08:21:48 AM 50.3667 -125.0500 143° Southeast 470 541 35,000  Level Vancouver Center
Fri 08:22:48 AM 50.2500 -124.9500 151° Southeast 470 541 35,000  Level Vancouver Center
Fri 08:23:48 AM 50.1333 -124.8333 147° Southeast 470 541 35,000  Level Vancouver Center
Fri 08:24:48 AM 50.0333 -124.7333 147° Southeast 480 552 35,000  Level Vancouver Center
Fri 08:25:48 AM 49.9000 -124.6000 147° Southeast 480 552 35,000  Level Vancouver Center
Fri 08:26:48 AM 49.8000 -124.5000 147° Southeast 480 552 35,000  Level Vancouver Center
Fri 08:27:48 AM 49.6833 -124.4000 151° Southeast 480 552 35,000  Level Vancouver Center
Fri 08:28:48 AM 49.5667 -124.2833 147° Southeast 480 552 35,000  Level Vancouver Center
Fri 08:29:48 AM 49.4500 -124.1833 151° Southeast 480 552 35,000  Level Vancouver Center
Fri 08:30:48 AM 49.3333 -124.0833 151° Southeast 480 552 35,000  Level Vancouver Center
Fri 08:31:48 AM 49.2333 -123.9833 147° Southeast 480 552 35,000  Level Vancouver Center
Fri 08:32:48 AM 49.1167 -123.8500 143° Southeast 480 552 35,000 -1,150 Level Vancouver Center
Fri 08:33:48 AM 49.0000 -123.7500 151° Southeast 480 552 32,700 -2,400 Descending Vancouver Center
Fri 08:34:48 AM 48.8833 -123.6500 151° Southeast 480 552 30,200 -2,300 Descending Vancouver Center
Fri 08:35:48 AM 48.7833 -123.5500 147° Southeast 470 541 28,100 -2,050 Descending Vancouver Center
Fri 08:36:48 AM 48.6667 -123.4500 150° Southeast 450 518 26,100 -2,100 Descending Vancouver Center
Fri 08:37:48 AM 48.5667 -123.3500 146° Southeast 440 506 23,900 -2,100 Descending Vancouver Center
Fri 08:38:48 AM 48.4667 -123.2500 146° Southeast 430 495 21,900 -2,050 Descending Vancouver Center
Fri 08:39:48 AM 48.3667 -123.1667 151° Southeast 410 472 19,800 -2,000 Descending Vancouver Center
Fri 08:40:48 AM 48.2833 -123.0667 141° Southeast 400 460 17,900 -1,833 Descending Vancouver Center
Fri 08:41:36 AM 48.2183 -123.0150 152° Southeast 396 456 16,500 -1,727 Descending Seattle Center
Fri 08:41:54 AM 48.1969 -122.9953 148° Southeast 392 451 16,000 -2,182 Descending Seattle Center
Fri 08:42:31 AM 48.1325 -122.9358 148° Southeast 386 444 14,500 -2,100 Descending Seattle Center
Fri 08:42:54 AM 48.1053 -122.9119 150° Southeast 386 444 13,900 -1,900 Descending Seattle Center
Fri 08:43:31 AM 48.0442 -122.8553 148° Southeast 376 433 12,600 -1,600 Descending Seattle Center
Fri 08:43:54 AM 48.0231 -122.8200 132° Southeast 367 422 12,300 -787 Descending Seattle Center
Fri 08:44:32 AM 47.9878 -122.7439 125° Southeast 324 373 11,800 -885 Descending Seattle Center
Fri 08:44:55 AM 47.9686 -122.7086 129° Southeast 330 380 11,400 -1,400 Descending Seattle Center
Fri 08:45:32 AM 47.9317 -122.6425 130° Southeast 311 358 10,400 -1,400 Descending Seattle Center
Fri 08:45:55 AM 47.9153 -122.6100 127° Southeast 308 354 10,000 -1,475 Descending Seattle Center
Fri 08:46:33 AM 47.8800 -122.5419 128° Southeast 277 319 8,900 -1,500 Descending Seattle Center
Fri 08:46:55 AM 47.8697 -122.5158 120° Southeast 282 325 8,500 -885 Descending Seattle Center
Fri 08:47:34 AM 47.8436 -122.4500 121° Southeast 263 303 8,000 -700 Descending Seattle Center
Fri 08:47:55 AM 47.8331 -122.4250 122° Southeast 253 291 7,800 -500 Descending Seattle Center
Fri 08:48:34 AM 47.8108 -122.3725 122° Southeast 209 241 7,500 -590 Descending Seattle Center
Fri 08:48:56 AM 47.7975 -122.3519 134° Southeast 208 239 7,200 -1,082 Descending Seattle Center
Fri 08:49:35 AM 47.7656 -122.3250 150° Southeast 192 221 6,400 -1,200 Descending Seattle Center
Fri 08:49:56 AM 47.7503 -122.3158 158° South 190 219 6,000 -1,300 Descending Seattle Center
Fri 08:50:35 AM 47.7119 -122.3150 179° South 194 223 5,100 -1,200 Descending Seattle Center
Fri 08:50:56 AM 47.6975 -122.3169 185° South 186 214 4,800 -787 Descending Seattle Center
Fri 08:51:36 AM 47.6614 -122.3167 180° South 180 207 4,300 -900 Descending Seattle Center
Fri 08:51:56 AM 47.6447 -122.3167 180° South 189 217 3,900 -984 Descending Seattle Center
Fri 08:52:37 AM 47.6106 -122.3186 182° South 182 209 3,300 -885 Descending Seattle Center
Fri 08:52:57 AM 47.5961 -122.3169 176° South 184 212 3,000 -900 Descending Seattle Center
Fri 08:53:37 AM 47.5611 -122.3164 179° South 179 206 2,400 -900 Descending Seattle Center
Fri 08:53:57 AM 47.5467 -122.3175 183° South 179 206 2,100 -885 Descending Seattle Center
Fri 08:54:38 AM 47.5150 -122.3189 182° South 166 191 1,500 -1,000 Descending Seattle Center
Fri 08:54:57 AM 47.4975 -122.3175 177° South 167 192 1,100 -889 Descending Seattle Center
Fri 08:55:32 AM 47.4750 -122.3181 181° South 158 182 700 -700 Descending Seattle Center
Fri 08:55:57 AM 47.4583 -122.3183 181° South 156 180 400 -720 Descending Seattle Center
Fri 08:57:00 AM 47.4499 -122.3118 170° South  Level Estimated
Fri 09:04:00 AM 47.4499 -122.3118 170° South  Level Estimated

Login

Don't have an account? Register now (free) for customized features, flight alerts, and more!